Dyffryn Ardudwy, United Kingdom
Current Conditions -  °F | °C
As of 2:50 AM on Tuesday 27 Jan 2015 (Local Time) from EGOV Reporting Station
Broken Clouds Broken Clouds  
Wind Chill: 38°   Ceiling: 9000
Heat Index: 45°   Visibility: 6mi
Dew Point: 39°   Wind: 15mph
Humidity: 81%   Direction: 280°W
Pressure: 30.39"   Gusts: NA
Location:  52.79°N, 4.1°W
Report Text: EGOV 270250Z 28013KT 9999 FEW018 SCT032 BKN090 07/04 Q1029 BLU
Loading
Personal Weather Stations






























Interactive Weather Map New forecast layout! Learn more

10-Day Weather Forecast

Advertisements
Track Severe Weather on mobile